createdAt,value
2023-01-06T00:01:13.761Z,10.04
2023-01-06T00:03:40.233Z,10.04
2023-01-06T00:06:09.426Z,10.02
2023-01-06T00:08:36.723Z,10.01
2023-01-06T00:11:08.053Z,10.00
2023-01-06T00:13:34.703Z,9.99
2023-01-06T00:16:09.267Z,9.98
2023-01-06T00:18:36.101Z,9.97
2023-01-06T00:21:03.378Z,9.97
2023-01-06T00:23:30.116Z,9.95
2023-01-06T00:25:56.617Z,9.93
2023-01-06T00:28:23.186Z,9.93
2023-01-06T00:30:49.690Z,9.93
2023-01-06T00:33:16.220Z,9.91
2023-01-06T00:35:42.733Z,9.90
2023-01-06T00:38:09.577Z,9.91
2023-01-06T00:40:37.272Z,9.89
2023-01-06T00:43:04.578Z,9.88
2023-01-06T00:45:31.535Z,9.87
2023-01-06T00:47:57.952Z,9.87
2023-01-06T00:50:24.636Z,9.86
2023-01-06T00:52:51.310Z,9.86
2023-01-06T00:55:17.788Z,9.86
2023-01-06T00:57:44.221Z,9.86
2023-01-06T01:00:11.393Z,9.87
2023-01-06T01:02:37.903Z,9.85
2023-01-06T01:05:04.769Z,9.84
2023-01-06T01:07:31.212Z,9.86
2023-01-06T01:09:57.649Z,9.85
2023-01-06T01:12:24.072Z,9.85
2023-01-06T01:14:53.503Z,9.84
2023-01-06T01:17:28.526Z,9.85
2023-01-06T01:19:57.683Z,9.86
2023-01-06T01:22:26.570Z,9.85
2023-01-06T01:24:53.066Z,9.87
2023-01-06T01:27:20.020Z,9.86
2023-01-06T01:29:46.523Z,9.88
2023-01-06T01:32:12.945Z,9.86
2023-01-06T01:34:39.734Z,9.87
2023-01-06T01:37:06.249Z,9.87
2023-01-06T01:39:32.684Z,9.86
2023-01-06T01:42:00.034Z,9.87
2023-01-06T01:45:02.552Z,9.86
2023-01-06T01:47:32.250Z,9.84
2023-01-06T01:50:14.612Z,9.87
2023-01-06T01:52:45.260Z,9.87
2023-01-06T01:55:13.354Z,9.83
2023-01-06T01:57:47.103Z,9.87
2023-01-06T02:00:13.852Z,9.85
2023-01-06T02:02:42.320Z,9.82
2023-01-06T02:05:11.154Z,9.84
2023-01-06T02:07:37.681Z,9.84
2023-01-06T02:10:18.226Z,9.83
2023-01-06T02:12:47.139Z,9.82
2023-01-06T02:15:16.365Z,9.82
2023-01-06T02:17:53.226Z,9.83
2023-01-06T02:20:40.695Z,9.82
2023-01-06T02:23:16.312Z,9.81
2023-01-06T02:26:13.898Z,9.81
2023-01-06T02:29:14.267Z,9.79
2023-01-06T02:32:02.260Z,9.79
2023-01-06T02:35:13.268Z,9.79
2023-01-06T02:37:57.950Z,9.80
2023-01-06T02:40:44.381Z,9.79
2023-01-06T02:43:18.683Z,9.79
2023-01-06T02:46:02.905Z,9.79
2023-01-06T02:48:47.548Z,9.79
2023-01-06T02:51:24.942Z,9.80
2023-01-06T02:54:29.952Z,9.79
2023-01-06T02:57:17.799Z,9.79
2023-01-06T03:00:03.583Z,9.78
2023-01-06T03:02:32.066Z,9.78
2023-01-06T03:05:01.503Z,9.78
2023-01-06T03:07:29.473Z,9.83
2023-01-06T03:09:58.691Z,9.83
2023-01-06T03:12:35.331Z,9.87
2023-01-06T03:15:01.991Z,9.87
2023-01-06T03:17:28.633Z,9.86
2023-01-06T03:19:55.330Z,9.90
2023-01-06T03:22:23.346Z,10.03
2023-01-06T03:24:50.043Z,10.11
2023-01-06T03:27:19.911Z,10.10
2023-01-06T03:29:46.535Z,10.06
2023-01-06T03:32:23.264Z,10.06
2023-01-06T03:34:58.793Z,10.06
2023-01-06T03:38:01.159Z,10.09
2023-01-06T03:40:37.916Z,10.05
2023-01-06T03:43:49.510Z,10.03
2023-01-06T03:46:25.048Z,10.02
2023-01-06T03:49:05.489Z,9.99
2023-01-06T03:51:44.284Z,9.95
2023-01-06T03:54:17.277Z,9.91
2023-01-06T03:56:51.338Z,9.93
2023-01-06T03:59:23.017Z,9.91
2023-01-06T04:01:49.931Z,9.90
2023-01-06T04:04:18.088Z,9.89
2023-01-06T04:06:45.013Z,9.88
2023-01-06T04:09:11.436Z,9.86
2023-01-06T04:11:56.652Z,9.86
2023-01-06T04:14:23.118Z,9.84
2023-01-06T04:16:49.549Z,9.84
2023-01-06T04:19:16.143Z,9.87
2023-01-06T04:21:42.562Z,9.87
2023-01-06T04:24:09.129Z,9.87
2023-01-06T04:26:38.704Z,9.88
2023-01-06T04:29:05.304Z,9.87
2023-01-06T04:31:32.968Z,9.88
2023-01-06T04:34:01.085Z,9.87
2023-01-06T04:36:27.561Z,9.86
2023-01-06T04:38:53.996Z,9.83
2023-01-06T04:41:20.752Z,9.84
2023-01-06T04:43:47.220Z,9.87
2023-01-06T04:46:13.680Z,9.87
2023-01-06T04:48:40.200Z,9.87
2023-01-06T04:51:08.717Z,9.89
2023-01-06T04:53:40.628Z,9.91
2023-01-06T04:56:09.564Z,9.91
2023-01-06T04:58:37.201Z,9.94
2023-01-06T05:01:10.735Z,9.96
2023-01-06T05:03:37.955Z,9.95
2023-01-06T05:06:10.643Z,9.93
2023-01-06T05:08:38.954Z,9.93
2023-01-06T05:11:08.753Z,9.96
2023-01-06T05:13:36.133Z,9.97
2023-01-06T05:16:07.678Z,10.00
2023-01-06T05:18:34.231Z,10.05
2023-01-06T05:21:00.657Z,10.04
2023-01-06T05:23:27.271Z,10.08
2023-01-06T05:25:54.104Z,10.14
2023-01-06T05:28:21.133Z,10.13
2023-01-06T05:30:47.694Z,10.09
2023-01-06T05:33:14.384Z,10.03
2023-01-06T05:35:41.220Z,10.02
2023-01-06T05:38:07.814Z,10.00
2023-01-06T05:40:35.444Z,10.02
2023-01-06T05:43:01.924Z,10.01
2023-01-06T05:45:28.448Z,10.00
2023-01-06T05:47:54.881Z,10.03
2023-01-06T05:50:21.336Z,10.06
2023-01-06T05:52:47.802Z,10.07
2023-01-06T05:55:14.263Z,10.08
2023-01-06T05:57:40.741Z,10.04
2023-01-06T06:00:08.386Z,10.08
2023-01-06T06:02:34.920Z,10.09
2023-01-06T06:05:01.404Z,10.11
2023-01-06T06:07:27.865Z,10.12
2023-01-06T06:09:54.314Z,10.14
2023-01-06T06:12:20.725Z,10.12
2023-01-06T06:14:47.125Z,10.12
2023-01-06T06:17:13.614Z,10.11
2023-01-06T06:19:40.057Z,10.11
2023-01-06T06:22:08.045Z,10.14
2023-01-06T06:24:35.676Z,10.10
2023-01-06T06:27:02.116Z,10.09
2023-01-06T06:29:28.595Z,10.07
2023-01-06T06:31:55.049Z,10.11
2023-01-06T06:34:21.473Z,10.11
2023-01-06T06:36:47.904Z,10.17
2023-01-06T06:39:14.349Z,10.13
2023-01-06T06:41:40.842Z,10.13
2023-01-06T06:44:07.493Z,10.11
2023-01-06T06:46:33.950Z,10.12
2023-01-06T06:49:00.409Z,10.12
2023-01-06T06:51:26.962Z,10.11
2023-01-06T06:53:53.429Z,10.09
2023-01-06T06:56:20.823Z,10.07
2023-01-06T06:58:47.474Z,10.07
2023-01-06T07:01:19.225Z,10.06
2023-01-06T07:03:46.018Z,10.09
2023-01-06T07:06:24.764Z,10.10
2023-01-06T07:08:52.049Z,10.07
2023-01-06T07:11:18.558Z,10.02
2023-01-06T07:13:45.085Z,10.03
2023-01-06T07:16:12.277Z,10.04
2023-01-06T07:18:39.360Z,10.04
2023-01-06T07:21:06.677Z,10.09
2023-01-06T07:23:33.548Z,10.11
2023-01-06T07:26:01.448Z,10.19
2023-01-06T07:28:29.316Z,10.21
2023-01-06T07:30:55.986Z,10.19
2023-01-06T07:33:23.007Z,10.16
2023-01-06T07:35:56.091Z,10.16
2023-01-06T07:38:22.981Z,10.14
2023-01-06T07:40:49.846Z,10.10
2023-01-06T07:43:17.139Z,10.11
2023-01-06T07:45:45.858Z,10.21
2023-01-06T07:48:12.321Z,10.21
2023-01-06T07:50:38.799Z,10.17
2023-01-06T07:53:05.322Z,10.18
2023-01-06T07:55:31.788Z,10.21
2023-01-06T07:58:01.404Z,10.29
2023-01-06T08:00:27.829Z,10.32
2023-01-06T08:02:54.430Z,10.32
2023-01-06T08:05:21.036Z,10.32
2023-01-06T08:07:47.495Z,10.29
2023-01-06T08:10:13.984Z,10.30
2023-01-06T08:12:40.515Z,10.26
2023-01-06T08:15:07.566Z,10.27
2023-01-06T08:17:34.117Z,10.32
2023-01-06T08:20:00.569Z,10.33
2023-01-06T08:22:27.100Z,10.30
2023-01-06T08:24:53.635Z,10.27
2023-01-06T08:27:20.770Z,10.34
2023-01-06T08:29:47.961Z,10.40
2023-01-06T08:32:14.447Z,10.47
2023-01-06T08:34:40.880Z,10.47
2023-01-06T08:37:07.404Z,10.46
2023-01-06T08:39:33.987Z,10.45
2023-01-06T08:42:00.519Z,10.47
2023-01-06T08:44:26.941Z,10.53
2023-01-06T08:46:53.459Z,10.51
2023-01-06T08:49:19.893Z,10.47
2023-01-06T08:51:46.391Z,10.48
2023-01-06T08:54:14.490Z,10.46
2023-01-06T08:56:43.466Z,10.54
2023-01-06T08:59:14.955Z,10.50
2023-01-06T09:01:42.267Z,10.52
2023-01-06T09:04:10.500Z,10.55
2023-01-06T09:06:37.337Z,10.54
2023-01-06T09:09:05.958Z,10.55
2023-01-06T09:11:32.496Z,10.58
2023-01-06T09:13:59.003Z,10.55
2023-01-06T09:16:25.489Z,10.54
2023-01-06T09:18:52.013Z,10.54
2023-01-06T09:21:20.811Z,10.53
2023-01-06T09:23:48.708Z,10.52
2023-01-06T09:26:16.777Z,10.50
2023-01-06T09:28:43.559Z,10.47
2023-01-06T09:31:10.590Z,10.47
2023-01-06T09:33:37.272Z,10.48
2023-01-06T09:36:04.012Z,10.48
2023-01-06T09:38:30.520Z,10.50
2023-01-06T09:41:04.407Z,10.49
2023-01-06T09:43:48.159Z,10.46
2023-01-06T09:46:19.192Z,10.44
2023-01-06T09:48:59.408Z,10.40
2023-01-06T09:51:29.138Z,10.36
2023-01-06T09:54:15.468Z,10.34
2023-01-06T09:56:46.322Z,10.34
2023-01-06T09:59:24.974Z,10.37
2023-01-06T10:01:52.079Z,10.39
2023-01-06T10:04:27.796Z,10.41
2023-01-06T10:07:15.404Z,10.41
2023-01-06T10:09:52.281Z,10.36
2023-01-06T10:12:33.246Z,10.28
2023-01-06T10:15:18.474Z,10.23
2023-01-06T10:18:06.788Z,10.22
2023-01-06T10:20:51.845Z,10.19
2023-01-06T10:23:32.889Z,10.16
2023-01-06T10:26:05.382Z,10.15
2023-01-06T10:28:38.219Z,10.15
2023-01-06T10:31:15.899Z,10.13
2023-01-06T10:33:54.015Z,10.12
2023-01-06T10:36:42.742Z,10.12
2023-01-06T10:39:22.342Z,10.12
2023-01-06T10:42:37.074Z,10.12
2023-01-06T10:45:03.739Z,10.16
2023-01-06T10:47:33.188Z,10.17
2023-01-06T10:50:00.669Z,10.17
2023-01-06T10:52:27.648Z,10.19
2023-01-06T10:54:59.591Z,10.23
2023-01-06T10:57:32.201Z,10.23
2023-01-06T11:00:12.098Z,10.25
2023-01-06T11:02:48.277Z,10.27
2023-01-06T11:05:20.334Z,10.30
2023-01-06T11:07:57.546Z,10.30
2023-01-06T11:10:36.088Z,10.34
2023-01-06T11:13:03.804Z,10.33
2023-01-06T11:15:41.903Z,10.35
2023-01-06T11:18:37.857Z,10.37
2023-01-06T11:21:11.810Z,10.40
2023-01-06T11:23:41.336Z,10.42
2023-01-06T11:26:13.961Z,10.44
2023-01-06T11:28:42.477Z,10.46
2023-01-06T11:31:10.927Z,10.46
2023-01-06T11:33:47.110Z,10.45
2023-01-06T11:36:14.958Z,10.46
2023-01-06T11:38:46.956Z,10.47
2023-01-06T11:41:30.906Z,10.53
2023-01-06T11:44:06.046Z,10.58
2023-01-06T11:46:32.567Z,10.62
2023-01-06T11:49:06.881Z,10.65
2023-01-06T11:51:47.443Z,10.65
2023-01-06T11:54:32.352Z,10.67
2023-01-06T11:57:09.128Z,10.71
2023-01-06T11:59:48.321Z,10.76
2023-01-06T12:02:24.584Z,10.82
2023-01-06T12:04:53.372Z,10.84
2023-01-06T12:07:43.173Z,10.90
2023-01-06T12:10:18.411Z,10.95
2023-01-06T12:12:44.992Z,11.02
2023-01-06T12:15:13.635Z,11.10
2023-01-06T12:17:50.991Z,11.11
2023-01-06T12:20:45.415Z,11.19
2023-01-06T12:23:19.329Z,11.23
2023-01-06T12:25:49.003Z,11.30
2023-01-06T12:28:28.843Z,11.33
2023-01-06T12:31:06.143Z,11.29
2023-01-06T12:33:45.080Z,11.22
2023-01-06T12:36:35.420Z,11.18
2023-01-06T12:39:12.089Z,11.12
2023-01-06T12:41:50.994Z,11.12
2023-01-06T12:44:43.051Z,11.09
2023-01-06T12:47:25.676Z,11.06
2023-01-06T12:50:15.129Z,11.04
2023-01-06T12:52:51.562Z,11.02
2023-01-06T12:55:33.647Z,10.98
2023-01-06T12:58:25.028Z,10.92
2023-01-06T13:00:57.860Z,10.87
2023-01-06T13:03:48.834Z,10.89
2023-01-06T13:06:31.602Z,10.92
2023-01-06T13:09:06.190Z,10.95
2023-01-06T13:12:08.406Z,10.90
2023-01-06T13:14:42.539Z,10.88
2023-01-06T13:17:24.775Z,10.85
2023-01-06T13:19:54.501Z,10.82
2023-01-06T13:22:50.744Z,10.80
2023-01-06T13:25:27.698Z,10.75
2023-01-06T13:28:03.463Z,10.72
2023-01-06T13:30:51.980Z,10.67
2023-01-06T13:33:46.584Z,10.68
2023-01-06T13:36:25.231Z,10.68
2023-01-06T13:39:00.145Z,10.68
2023-01-06T13:41:32.182Z,10.68
2023-01-06T13:44:00.710Z,10.71
2023-01-06T13:46:30.358Z,10.72
2023-01-06T13:49:04.041Z,10.71
2023-01-06T13:51:40.741Z,10.72
2023-01-06T13:54:07.283Z,10.80
2023-01-06T13:56:35.727Z,10.82
2023-01-06T13:59:22.301Z,10.82
2023-01-06T14:01:49.628Z,10.83
2023-01-06T14:04:39.507Z,10.79
2023-01-06T14:07:06.039Z,10.77
2023-01-06T14:09:38.651Z,10.78
2023-01-06T14:12:21.206Z,10.75
2023-01-06T14:14:56.995Z,10.75
2023-01-06T14:17:35.545Z,10.76
2023-01-06T14:20:02.271Z,10.76
2023-01-06T14:22:29.758Z,10.78
2023-01-06T14:24:59.991Z,10.79
2023-01-06T14:27:48.254Z,10.77
2023-01-06T14:30:30.666Z,10.78
2023-01-06T14:33:18.866Z,10.79
2023-01-06T14:35:47.205Z,10.76
2023-01-06T14:38:19.833Z,10.74
2023-01-06T14:41:18.836Z,10.71
2023-01-06T14:43:56.556Z,10.69
2023-01-06T14:46:27.850Z,10.69
2023-01-06T14:49:03.414Z,10.68
2023-01-06T14:51:31.421Z,10.68
2023-01-06T14:54:24.008Z,10.66
2023-01-06T14:56:59.193Z,10.68
2023-01-06T14:59:26.474Z,10.66
2023-01-06T15:02:02.399Z,10.65
2023-01-06T15:04:34.853Z,10.63
2023-01-06T15:07:17.899Z,10.61
2023-01-06T15:09:49.887Z,10.59
2023-01-06T15:12:30.992Z,10.58
2023-01-06T15:15:14.211Z,10.58
2023-01-06T15:17:40.919Z,10.54
2023-01-06T15:20:13.403Z,10.52
2023-01-06T15:22:40.291Z,10.48
2023-01-06T15:25:16.646Z,10.47
2023-01-06T15:27:48.355Z,10.45
2023-01-06T15:30:18.177Z,10.45
2023-01-06T15:32:46.332Z,10.45
2023-01-06T15:35:17.945Z,10.43
2023-01-06T15:37:46.505Z,10.43
2023-01-06T15:40:21.409Z,10.43
2023-01-06T15:42:48.490Z,10.43
2023-01-06T15:45:55.631Z,10.43
2023-01-06T15:48:30.924Z,10.42
2023-01-06T15:50:57.454Z,10.42
2023-01-06T15:53:32.064Z,10.41
2023-01-06T15:56:00.836Z,10.40
2023-01-06T15:58:36.808Z,10.40
2023-01-06T16:01:11.609Z,10.38
2023-01-06T16:03:39.519Z,10.38
2023-01-06T16:06:12.417Z,10.37
2023-01-06T16:08:40.928Z,10.37
2023-01-06T16:11:16.580Z,10.38
2023-01-06T16:13:49.211Z,10.38
2023-01-06T16:16:15.719Z,10.40
2023-01-06T16:18:44.240Z,10.39
2023-01-06T16:21:24.246Z,10.38
2023-01-06T16:23:54.347Z,10.38
2023-01-06T16:26:24.881Z,10.37
2023-01-06T16:28:54.133Z,10.37
2023-01-06T16:31:33.123Z,10.36
2023-01-06T16:34:21.486Z,10.35
2023-01-06T16:36:54.180Z,10.34
2023-01-06T16:39:20.650Z,10.34
2023-01-06T16:41:59.015Z,10.33
2023-01-06T16:44:34.488Z,10.33
2023-01-06T16:47:02.111Z,10.32
2023-01-06T16:49:30.586Z,10.31
2023-01-06T16:51:57.228Z,10.31
2023-01-06T16:54:23.732Z,10.31
2023-01-06T16:56:52.058Z,10.32
2023-01-06T16:59:20.050Z,10.32
2023-01-06T17:01:47.983Z,10.31
2023-01-06T17:04:15.401Z,10.31
2023-01-06T17:06:44.324Z,10.32
2023-01-06T17:09:19.724Z,10.32
2023-01-06T17:11:47.635Z,10.31
2023-01-06T17:14:16.860Z,10.31
2023-01-06T17:16:43.674Z,10.30
2023-01-06T17:19:23.258Z,10.29
2023-01-06T17:21:52.713Z,10.27
2023-01-06T17:24:25.402Z,10.26
2023-01-06T17:27:00.130Z,10.24
2023-01-06T17:29:29.818Z,10.26
2023-01-06T17:31:58.520Z,10.24
2023-01-06T17:34:31.744Z,10.25
2023-01-06T17:37:12.961Z,10.24
2023-01-06T17:39:41.556Z,10.24
2023-01-06T17:42:07.954Z,10.24
2023-01-06T17:44:41.223Z,10.23
2023-01-06T17:48:00.361Z,10.22
2023-01-06T17:50:31.135Z,10.21
2023-01-06T17:53:52.681Z,10.19
2023-01-06T17:56:21.774Z,10.19
2023-01-06T17:58:48.420Z,10.17
2023-01-06T18:01:27.149Z,10.16
2023-01-06T18:03:56.263Z,10.16
2023-01-06T18:06:38.979Z,10.16
2023-01-06T18:09:05.346Z,10.17
2023-01-06T18:11:39.725Z,10.16
2023-01-06T18:14:31.153Z,10.16
2023-01-06T18:16:59.715Z,10.15
2023-01-06T18:19:33.925Z,10.14
2023-01-06T18:22:09.835Z,10.11
2023-01-06T18:24:38.829Z,10.10
2023-01-06T18:27:27.211Z,10.11
2023-01-06T18:30:00.065Z,10.12
2023-01-06T18:32:36.280Z,10.12
2023-01-06T18:35:18.419Z,10.13
2023-01-06T18:37:45.177Z,10.13
2023-01-06T18:40:31.633Z,10.14
2023-01-06T18:42:58.689Z,10.14
2023-01-06T18:45:36.445Z,10.16
2023-01-06T18:48:17.771Z,10.15
2023-01-06T18:50:46.518Z,10.15
2023-01-06T18:53:13.165Z,10.15
2023-01-06T18:55:45.334Z,10.14
2023-01-06T18:58:11.681Z,10.12
2023-01-06T19:00:45.740Z,10.12
2023-01-06T19:03:15.773Z,10.11
2023-01-06T19:05:42.898Z,10.12
2023-01-06T19:08:26.871Z,10.12
2023-01-06T19:10:53.303Z,10.12
2023-01-06T19:13:24.162Z,10.11
2023-01-06T19:15:50.815Z,10.13
2023-01-06T19:18:18.369Z,10.12
2023-01-06T19:20:45.974Z,10.12
2023-01-06T19:23:22.831Z,10.14
2023-01-06T19:26:02.557Z,10.14
2023-01-06T19:28:34.158Z,10.14
2023-01-06T19:31:02.114Z,10.14
2023-01-06T19:33:44.603Z,10.16
2023-01-06T19:36:31.344Z,10.15
2023-01-06T19:39:01.687Z,10.15
2023-01-06T19:41:32.955Z,10.14
2023-01-06T19:44:11.972Z,10.12
2023-01-06T19:46:41.245Z,10.12
2023-01-06T19:49:13.131Z,10.11
2023-01-06T19:51:39.763Z,10.13
2023-01-06T19:54:18.333Z,10.12
2023-01-06T19:56:44.770Z,10.13
2023-01-06T19:59:25.211Z,10.13
2023-01-06T20:02:19.368Z,10.13
2023-01-06T20:04:45.914Z,10.12
2023-01-06T20:07:12.410Z,10.10
2023-01-06T20:09:38.886Z,10.09
2023-01-06T20:12:05.466Z,10.07
2023-01-06T20:14:31.897Z,10.07
2023-01-06T20:16:59.436Z,10.07
2023-01-06T20:19:26.005Z,10.07
2023-01-06T20:21:52.429Z,10.07
2023-01-06T20:24:18.864Z,10.05
2023-01-06T20:26:45.369Z,10.05
2023-01-06T20:29:11.851Z,10.05
2023-01-06T20:31:38.522Z,10.04
2023-01-06T20:34:05.141Z,10.04
2023-01-06T20:36:31.626Z,10.02
2023-01-06T20:38:58.122Z,10.03
2023-01-06T20:41:24.572Z,10.02
2023-01-06T20:43:51.173Z,10.01
2023-01-06T20:46:17.682Z,10.01
2023-01-06T20:48:44.238Z,10.01
2023-01-06T20:51:10.731Z,10.01
2023-01-06T20:53:37.361Z,9.99
2023-01-06T20:56:04.044Z,9.98
2023-01-06T20:58:30.687Z,9.99
2023-01-06T21:00:57.208Z,9.98
2023-01-06T21:03:23.734Z,9.98
2023-01-06T21:05:50.236Z,9.98
2023-01-06T21:08:16.696Z,9.97
2023-01-06T21:10:43.121Z,9.97
2023-01-06T21:13:09.864Z,9.98
2023-01-06T21:15:36.411Z,9.96
2023-01-06T21:18:02.866Z,9.97
2023-01-06T21:20:29.751Z,9.97
2023-01-06T21:22:56.219Z,9.99
2023-01-06T21:25:24.676Z,9.97
2023-01-06T21:27:51.195Z,9.98
2023-01-06T21:30:18.156Z,9.97
2023-01-06T21:32:44.638Z,9.96
2023-01-06T21:35:11.245Z,9.97
2023-01-06T21:37:37.736Z,9.98
2023-01-06T21:40:08.226Z,9.98
2023-01-06T21:42:53.898Z,9.98
2023-01-06T21:45:20.597Z,9.99
2023-01-06T21:47:47.024Z,9.99
2023-01-06T21:50:13.641Z,9.98
2023-01-06T21:52:40.238Z,9.98
2023-01-06T21:55:07.371Z,9.98
2023-01-06T21:57:33.898Z,9.98
2023-01-06T22:00:00.330Z,9.99
2023-01-06T22:02:26.898Z,9.99
2023-01-06T22:04:53.492Z,9.99
2023-01-06T22:07:21.204Z,10.00
2023-01-06T22:09:48.574Z,10.00
2023-01-06T22:12:17.543Z,10.00
2023-01-06T22:14:45.063Z,10.00
2023-01-06T22:17:12.600Z,9.98
2023-01-06T22:19:39.896Z,10.00
2023-01-06T22:22:06.859Z,9.99
2023-01-06T22:24:35.499Z,9.98
2023-01-06T22:27:02.200Z,9.98
2023-01-06T22:29:28.650Z,9.97
2023-01-06T22:32:00.892Z,9.97
2023-01-06T22:34:27.625Z,9.99
2023-01-06T22:36:54.151Z,9.98
2023-01-06T22:39:20.582Z,9.99
2023-01-06T22:41:47.382Z,9.99
2023-01-06T22:44:14.137Z,9.99
2023-01-06T22:46:40.658Z,9.97
2023-01-06T22:49:07.196Z,9.98
2023-01-06T22:51:33.890Z,9.99
2023-01-06T22:54:00.332Z,10.00
2023-01-06T22:56:26.774Z,10.00
2023-01-06T22:58:53.255Z,10.00
2023-01-06T23:01:19.837Z,10.00
2023-01-06T23:03:46.342Z,10.00
2023-01-06T23:06:14.909Z,9.99
2023-01-06T23:08:58.542Z,9.98
2023-01-06T23:11:27.880Z,9.96
2023-01-06T23:13:56.718Z,9.96
2023-01-06T23:16:26.120Z,9.93
2023-01-06T23:18:53.084Z,9.93
2023-01-06T23:21:22.573Z,9.93
2023-01-06T23:23:50.655Z,9.94
2023-01-06T23:26:19.664Z,9.94
2023-01-06T23:28:46.512Z,9.96
2023-01-06T23:31:22.040Z,9.96
2023-01-06T23:33:51.307Z,9.97
2023-01-06T23:36:19.842Z,9.98
2023-01-06T23:38:47.015Z,9.98
2023-01-06T23:41:19.025Z,9.98
2023-01-06T23:43:46.549Z,9.98
2023-01-06T23:46:16.111Z,9.98
2023-01-06T23:48:43.380Z,9.98
2023-01-06T23:51:11.047Z,9.97
2023-01-06T23:53:38.713Z,9.96
2023-01-06T23:56:08.189Z,9.97
2023-01-06T23:58:37.616Z,9.98
